createdAt,value
2019-03-23T00:00:53.449Z,57.40
2019-03-23T00:03:24.439Z,60.47
2019-03-23T00:05:55.314Z,57.93
2019-03-23T00:08:26.237Z,59.90
2019-03-23T00:10:57.110Z,63.30
2019-03-23T00:13:28.114Z,61.40
2019-03-23T00:15:59.089Z,61.07
2019-03-23T00:18:30.002Z,60.27
2019-03-23T00:21:00.886Z,60.27
2019-03-23T00:23:31.814Z,59.67
2019-03-23T00:26:02.714Z,56.93
2019-03-23T00:28:33.641Z,57.67
2019-03-23T00:31:04.509Z,68.73
2019-03-23T00:33:35.502Z,61.53
2019-03-23T00:36:06.464Z,63.30
2019-03-23T00:38:37.366Z,63.10
2019-03-23T00:41:08.249Z,62.50
2019-03-23T00:43:39.170Z,62.17
2019-03-23T00:46:10.061Z,58.60
2019-03-23T00:48:40.981Z,62.53
2019-03-23T00:51:11.850Z,64.20
2019-03-23T00:53:42.841Z,63.70
2019-03-23T00:56:13.718Z,63.23
2019-03-23T00:58:45.058Z,63.70
2019-03-23T01:01:16.026Z,62.60
2019-03-23T01:03:47.051Z,58.80
2019-03-23T01:06:17.933Z,58.73
2019-03-23T01:08:48.841Z,59.50
2019-03-23T01:11:19.724Z,60.37
2019-03-23T01:13:50.789Z,59.03
2019-03-23T01:16:21.974Z,61.80
2019-03-23T01:18:52.883Z,63.63
2019-03-23T01:21:23.763Z,61.70
2019-03-23T01:23:54.659Z,58.73
2019-03-23T01:26:26.731Z,59.30
2019-03-23T01:28:57.878Z,59.37
2019-03-23T01:31:28.757Z,59.37
2019-03-23T01:34:00.058Z,63.60
2019-03-23T01:36:30.995Z,61.80
2019-03-23T01:39:01.897Z,62.30
2019-03-23T01:41:34.248Z,63.57
2019-03-23T01:44:05.993Z,59.43
2019-03-23T01:46:36.877Z,57.73
2019-03-23T01:49:07.876Z,60.60
2019-03-23T01:51:38.758Z,58.43
2019-03-23T01:54:09.756Z,58.93
2019-03-23T01:56:40.638Z,58.03
2019-03-23T01:59:11.571Z,58.27
2019-03-23T02:01:42.461Z,58.13
2019-03-23T02:04:13.459Z,56.43
2019-03-23T02:06:44.335Z,57.40
2019-03-23T02:09:15.669Z,59.63
2019-03-23T02:11:46.541Z,55.73
2019-03-23T02:14:17.458Z,57.10
2019-03-23T02:16:48.336Z,56.00
2019-03-23T02:19:19.264Z,58.47
2019-03-23T02:21:51.217Z,57.63
2019-03-23T02:24:22.133Z,57.13
2019-03-23T02:26:53.017Z,59.80
2019-03-23T02:29:24.018Z,63.77
2019-03-23T02:31:54.901Z,60.87
2019-03-23T02:34:25.830Z,56.37
2019-03-23T02:36:56.777Z,53.90
2019-03-23T02:39:27.785Z,55.43
2019-03-23T02:41:58.679Z,55.77
2019-03-23T02:44:29.688Z,56.97
2019-03-23T02:47:00.565Z,58.27
2019-03-23T02:49:31.506Z,54.73
2019-03-23T02:52:02.396Z,55.87
2019-03-23T02:54:33.456Z,55.57
2019-03-23T02:57:04.346Z,53.57
2019-03-23T02:59:35.274Z,55.17
2019-03-23T03:02:06.257Z,54.73
2019-03-23T03:04:37.196Z,57.67
2019-03-23T03:07:08.074Z,56.83
2019-03-23T03:09:39.007Z,53.90
2019-03-23T03:12:09.889Z,52.80
2019-03-23T03:14:40.905Z,54.60
2019-03-23T03:17:11.766Z,55.93
2019-03-23T03:19:42.681Z,57.13
2019-03-23T03:22:13.566Z,60.10
2019-03-23T03:24:44.490Z,58.60
2019-03-23T03:27:15.361Z,54.27
2019-03-23T03:29:46.378Z,53.83
2019-03-23T03:32:17.264Z,53.70
2019-03-23T03:34:48.182Z,55.20
2019-03-23T03:37:19.125Z,56.50
2019-03-23T03:39:50.362Z,59.97
2019-03-23T03:42:21.345Z,67.13
2019-03-23T03:44:52.259Z,74.67
2019-03-23T03:47:23.241Z,68.40
2019-03-23T03:49:54.150Z,69.50
2019-03-23T03:52:25.039Z,80.90
2019-03-23T03:54:55.948Z,75.10
2019-03-23T03:57:26.826Z,82.87
2019-03-23T03:59:57.761Z,79.00
2019-03-23T04:02:28.647Z,69.93
2019-03-23T04:04:59.588Z,82.90
2019-03-23T04:07:30.509Z,79.03
2019-03-23T04:10:01.422Z,89.77
2019-03-23T04:12:32.374Z,75.03
2019-03-23T04:15:03.382Z,61.07
2019-03-23T04:17:34.297Z,83.80
2019-03-23T04:20:05.720Z,87.07
2019-03-23T04:22:36.605Z,87.33
2019-03-23T04:25:08.690Z,95.17
2019-03-23T04:27:39.571Z,94.23
2019-03-23T04:30:10.882Z,81.13
2019-03-23T04:32:41.770Z,94.70
2019-03-23T04:35:13.061Z,93.77
2019-03-23T04:37:44.005Z,92.43
2019-03-23T04:40:15.226Z,94.60
2019-03-23T04:42:46.112Z,83.47
2019-03-23T04:45:17.401Z,75.77
2019-03-23T04:47:48.288Z,99.77
2019-03-23T04:50:19.294Z,90.43
2019-03-23T04:52:50.181Z,96.33
2019-03-23T04:55:21.117Z,96.73
2019-03-23T04:57:52.003Z,102.63
2019-03-23T05:00:23.017Z,111.77
2019-03-23T05:02:53.898Z,112.23
2019-03-23T05:05:24.837Z,117.40
2019-03-23T05:07:55.718Z,98.10
2019-03-23T05:10:26.659Z,116.87
2019-03-23T05:12:57.557Z,113.07
2019-03-23T05:15:28.500Z,117.30
2019-03-23T05:17:59.381Z,114.83
2019-03-23T05:20:31.631Z,122.43
2019-03-23T05:23:02.519Z,122.07
2019-03-23T05:25:33.472Z,127.07
2019-03-23T05:28:04.357Z,130.13
2019-03-23T05:30:35.297Z,123.27
2019-03-23T05:33:07.131Z,128.43
2019-03-23T05:35:38.173Z,130.90
2019-03-23T05:38:09.185Z,132.00
2019-03-23T05:40:40.553Z,127.03
2019-03-23T05:43:11.438Z,121.37
2019-03-23T05:45:42.368Z,116.07
2019-03-23T05:48:13.258Z,123.07
2019-03-23T05:50:44.275Z,123.83
2019-03-23T05:53:15.166Z,122.97
2019-03-23T05:55:46.086Z,99.83
2019-03-23T05:58:17.039Z,95.70
2019-03-23T06:00:47.954Z,95.40
2019-03-23T06:03:18.830Z,88.83
2019-03-23T06:05:49.762Z,113.93
2019-03-23T06:08:20.651Z,125.40
2019-03-23T06:10:51.567Z,167.47
2019-03-23T06:13:22.449Z,100.87
2019-03-23T06:15:54.437Z,94.97
2019-03-23T06:18:25.330Z,94.60
2019-03-23T06:20:56.253Z,89.23
2019-03-23T06:23:27.136Z,87.50
2019-03-23T06:25:58.270Z,97.73
2019-03-23T06:28:29.312Z,89.30
2019-03-23T06:31:00.253Z,73.57
2019-03-23T06:33:31.129Z,66.53
2019-03-23T06:36:02.041Z,64.80
2019-03-23T06:38:32.998Z,60.53
2019-03-23T06:41:03.905Z,62.30
2019-03-23T06:43:34.790Z,58.47
2019-03-23T06:46:05.714Z,53.67
2019-03-23T06:48:36.597Z,53.33
2019-03-23T06:51:07.589Z,49.77
2019-03-23T06:53:38.480Z,47.53
2019-03-23T06:56:09.400Z,47.17
2019-03-23T06:58:40.285Z,45.97
2019-03-23T07:01:11.197Z,44.10
2019-03-23T07:03:42.089Z,44.57
2019-03-23T07:06:12.998Z,42.70
2019-03-23T07:08:43.884Z,41.67
2019-03-23T07:11:14.789Z,41.63
2019-03-23T07:13:45.680Z,40.47
2019-03-23T07:16:16.592Z,40.73
2019-03-23T07:18:47.484Z,39.60
2019-03-23T07:21:18.818Z,39.37
2019-03-23T07:23:49.703Z,40.00
2019-03-23T07:26:20.638Z,38.50
2019-03-23T07:28:51.529Z,39.93
2019-03-23T07:31:22.457Z,37.30
2019-03-23T07:33:53.338Z,37.63
2019-03-23T07:36:24.266Z,39.07
2019-03-23T07:38:55.202Z,39.67
2019-03-23T07:41:26.354Z,40.70
2019-03-23T07:43:57.631Z,40.30
2019-03-23T07:46:28.630Z,40.27
2019-03-23T07:48:59.821Z,41.27
2019-03-23T07:51:30.745Z,39.47
2019-03-23T07:54:02.755Z,40.40
2019-03-23T07:56:34.160Z,39.27
2019-03-23T07:59:05.416Z,40.77
2019-03-23T08:01:36.416Z,40.77
2019-03-23T08:04:07.338Z,40.57
2019-03-23T08:06:38.605Z,39.80
2019-03-23T08:09:19.803Z,40.37
2019-03-23T08:11:42.053Z,41.83
2019-03-23T08:14:12.941Z,42.53
2019-03-23T08:16:44.248Z,42.07
2019-03-23T08:19:15.137Z,41.90
2019-03-23T08:21:46.062Z,41.13
2019-03-23T08:24:16.945Z,41.07
2019-03-23T08:26:47.893Z,40.73
2019-03-23T08:29:18.784Z,39.57
2019-03-23T08:31:49.707Z,40.03
2019-03-23T08:34:20.610Z,38.50
2019-03-23T08:36:51.509Z,39.63
2019-03-23T08:39:22.533Z,39.07
2019-03-23T08:41:53.547Z,37.90
2019-03-23T08:44:24.495Z,37.53
2019-03-23T08:46:55.507Z,38.63
2019-03-23T08:49:28.615Z,38.47
2019-03-23T08:51:59.172Z,37.47
2019-03-23T08:54:30.134Z,37.97
2019-03-23T08:57:01.129Z,38.77
2019-03-23T08:59:32.012Z,38.93
2019-03-23T09:02:02.949Z,38.07
2019-03-23T09:04:33.833Z,38.17
2019-03-23T09:07:04.754Z,37.47
2019-03-23T09:09:35.643Z,36.97
2019-03-23T09:12:06.562Z,36.07
2019-03-23T09:14:37.434Z,37.27
2019-03-23T09:17:08.341Z,36.83
2019-03-23T09:19:39.252Z,35.67
2019-03-23T09:22:11.259Z,37.23
2019-03-23T09:24:42.145Z,38.13
2019-03-23T09:27:13.357Z,37.58
2019-03-23T09:29:45.306Z,37.78
2019-03-23T09:32:16.902Z,38.45
2019-03-23T09:34:47.807Z,39.35
2019-03-23T09:37:19.037Z,39.25
2019-03-23T09:39:50.285Z,37.45
2019-03-23T09:42:21.204Z,37.13
2019-03-23T09:44:52.461Z,38.40
2019-03-23T09:47:23.376Z,36.53
2019-03-23T09:49:54.353Z,38.23
2019-03-23T09:52:25.375Z,39.85
2019-03-23T09:54:56.632Z,39.30
2019-03-23T09:57:28.119Z,41.35
2019-03-23T09:59:59.009Z,39.42
2019-03-23T10:02:30.377Z,37.20
2019-03-23T10:05:02.331Z,38.05
2019-03-23T10:07:33.726Z,39.23
2019-03-23T10:10:05.114Z,38.85
2019-03-23T10:12:36.130Z,35.75
2019-03-23T10:15:08.631Z,38.00
2019-03-23T10:17:40.378Z,37.03
2019-03-23T10:20:11.356Z,37.63
2019-03-23T10:22:42.434Z,39.18
2019-03-23T10:25:13.330Z,39.73
2019-03-23T10:27:44.369Z,40.88
2019-03-23T10:30:15.366Z,39.58
2019-03-23T10:32:46.672Z,39.10
2019-03-23T10:35:17.573Z,41.45
2019-03-23T10:37:48.597Z,40.65
2019-03-23T10:40:19.630Z,41.88
2019-03-23T10:42:50.542Z,41.77
2019-03-23T10:45:21.439Z,41.10
2019-03-23T10:47:53.185Z,42.35
2019-03-23T10:50:25.482Z,41.68
2019-03-23T10:52:58.214Z,42.27
2019-03-23T10:55:29.941Z,43.28
2019-03-23T10:58:00.916Z,45.15
2019-03-23T11:00:32.206Z,44.30
2019-03-23T11:03:03.758Z,43.70
2019-03-23T11:05:35.023Z,45.50
2019-03-23T11:08:06.134Z,47.53
2019-03-23T11:10:41.782Z,47.58
2019-03-23T11:13:10.308Z,48.08
2019-03-23T11:15:41.182Z,46.28
2019-03-23T11:18:13.798Z,49.17
2019-03-23T11:20:44.677Z,49.97
2019-03-23T11:23:15.586Z,48.83
2019-03-23T11:25:46.469Z,46.10
2019-03-23T11:28:17.389Z,46.60
2019-03-23T11:30:48.273Z,46.00
2019-03-23T11:33:19.290Z,43.77
2019-03-23T11:35:57.424Z,42.50
2019-03-23T11:38:22.862Z,42.03
2019-03-23T11:40:55.282Z,42.53
2019-03-23T11:43:26.489Z,42.40
2019-03-23T11:45:57.371Z,43.10
2019-03-23T11:48:28.647Z,42.50
2019-03-23T11:50:59.918Z,43.27
2019-03-23T11:53:30.924Z,44.07
2019-03-23T11:56:01.820Z,46.80
2019-03-23T11:58:32.821Z,44.03
2019-03-23T12:01:03.714Z,46.80
2019-03-23T12:03:34.926Z,47.37
2019-03-23T12:06:05.825Z,49.33
2019-03-23T12:08:36.833Z,47.30
2019-03-23T12:11:07.722Z,49.63
2019-03-23T12:13:38.634Z,47.80
2019-03-23T12:16:09.509Z,47.73
2019-03-23T12:18:40.534Z,48.37
2019-03-23T12:21:11.421Z,50.87
2019-03-23T12:23:42.361Z,48.97
2019-03-23T12:26:13.241Z,52.47
2019-03-23T12:28:44.187Z,52.30
2019-03-23T12:31:15.078Z,54.10
2019-03-23T12:33:46.014Z,54.97
2019-03-23T12:36:16.902Z,53.27
2019-03-23T12:38:47.829Z,52.40
2019-03-23T12:41:23.100Z,52.63
2019-03-23T12:43:51.501Z,52.70
2019-03-23T12:46:22.382Z,52.27
2019-03-23T12:48:53.308Z,45.47
2019-03-23T12:51:24.196Z,49.57
2019-03-23T12:53:55.115Z,47.13
2019-03-23T12:56:26.386Z,42.33
2019-03-23T12:58:58.365Z,41.50
2019-03-23T13:01:29.267Z,43.37
2019-03-23T13:04:00.189Z,41.03
2019-03-23T13:06:31.077Z,42.37
2019-03-23T13:09:02.013Z,39.30
2019-03-23T13:11:35.456Z,40.43
2019-03-23T13:14:06.614Z,39.90
2019-03-23T13:16:37.510Z,38.80
2019-03-23T13:19:08.554Z,42.10
2019-03-23T13:21:39.458Z,39.10
2019-03-23T13:24:10.397Z,39.77
2019-03-23T13:26:41.293Z,39.27
2019-03-23T13:29:12.521Z,36.63
2019-03-23T13:31:43.411Z,37.93
2019-03-23T13:34:14.333Z,34.97
2019-03-23T13:36:45.219Z,33.83
2019-03-23T13:39:16.218Z,35.90
2019-03-23T13:41:51.259Z,33.30
2019-03-23T13:44:22.180Z,35.03
2019-03-23T13:46:53.058Z,34.57
2019-03-23T13:49:23.987Z,33.20
2019-03-23T13:51:54.891Z,33.83
2019-03-23T13:54:25.961Z,33.37
2019-03-23T13:56:56.853Z,33.83
2019-03-23T13:59:27.777Z,34.30
2019-03-23T14:01:58.669Z,31.83
2019-03-23T14:04:29.586Z,33.77
2019-03-23T14:07:00.477Z,34.93
2019-03-23T14:09:31.408Z,31.13
2019-03-23T14:12:02.290Z,34.03
2019-03-23T14:14:33.585Z,35.47
2019-03-23T14:17:04.562Z,35.10
2019-03-23T14:19:35.501Z,31.47
2019-03-23T14:22:06.402Z,35.17
2019-03-23T14:24:37.392Z,35.33
2019-03-23T14:27:08.277Z,34.50
2019-03-23T14:29:39.433Z,33.87
2019-03-23T14:32:10.316Z,34.20
2019-03-23T14:34:41.317Z,33.60
2019-03-23T14:37:12.204Z,32.00
2019-03-23T14:39:43.126Z,35.40
2019-03-23T14:42:14.074Z,35.20
2019-03-23T14:44:45.073Z,35.37
2019-03-23T14:47:15.951Z,34.30
2019-03-23T14:49:46.953Z,34.40
2019-03-23T14:52:17.835Z,34.47
2019-03-23T14:54:49.090Z,34.23
2019-03-23T14:57:19.962Z,35.10
2019-03-23T14:59:50.964Z,32.83
2019-03-23T15:02:21.853Z,34.07
2019-03-23T15:04:52.869Z,34.23
2019-03-23T15:07:23.755Z,32.83
2019-03-23T15:09:54.757Z,30.57
2019-03-23T15:12:25.642Z,28.73
2019-03-23T15:14:56.816Z,24.17
2019-03-23T15:17:27.680Z,24.77
2019-03-23T15:19:58.628Z,23.60
2019-03-23T15:22:29.989Z,23.33
2019-03-23T15:25:00.906Z,24.00
2019-03-23T15:27:31.786Z,26.00
2019-03-23T15:30:02.826Z,27.87
2019-03-23T15:32:33.771Z,27.80
2019-03-23T15:35:04.779Z,27.67
2019-03-23T15:37:36.054Z,30.13
2019-03-23T15:40:07.481Z,28.53
2019-03-23T15:42:38.409Z,29.73
2019-03-23T15:45:09.646Z,29.17
2019-03-23T15:47:40.541Z,28.67
2019-03-23T15:50:12.387Z,29.03
2019-03-23T15:52:43.274Z,29.47
2019-03-23T15:55:14.313Z,27.63
2019-03-23T15:57:45.194Z,27.77
2019-03-23T16:00:16.830Z,27.03
2019-03-23T16:02:47.709Z,26.17
2019-03-23T16:05:18.748Z,26.23
2019-03-23T16:07:49.730Z,23.77
2019-03-23T16:10:20.653Z,20.30
2019-03-23T16:12:51.617Z,20.63
2019-03-23T16:15:22.549Z,20.00
2019-03-23T16:17:53.434Z,19.73
2019-03-23T16:20:24.464Z,20.27
2019-03-23T16:22:55.350Z,17.97
2019-03-23T16:25:26.282Z,16.60
2019-03-23T16:27:57.175Z,17.63
2019-03-23T16:30:32.835Z,17.23
2019-03-23T16:33:03.733Z,16.73
2019-03-23T16:35:35.734Z,16.53
2019-03-23T16:38:06.618Z,17.83
2019-03-23T16:40:37.627Z,17.63
2019-03-23T16:43:08.647Z,16.23
2019-03-23T16:45:39.598Z,16.50
2019-03-23T16:48:10.499Z,16.07
2019-03-23T16:50:41.509Z,16.40
2019-03-23T16:53:12.459Z,16.17
2019-03-23T16:55:43.472Z,15.97
2019-03-23T16:58:16.321Z,15.63
2019-03-23T17:00:46.895Z,15.43
2019-03-23T17:03:17.782Z,15.60
2019-03-23T17:05:48.808Z,17.07
2019-03-23T17:08:19.641Z,18.10
2019-03-23T17:10:50.558Z,17.33
2019-03-23T17:13:21.445Z,18.30
2019-03-23T17:15:52.445Z,18.27
2019-03-23T17:18:23.329Z,18.77
2019-03-23T17:20:54.391Z,18.47
2019-03-23T17:23:26.341Z,18.37
2019-03-23T17:25:57.318Z,18.03
2019-03-23T17:28:28.201Z,19.43
2019-03-23T17:30:59.335Z,19.80
2019-03-23T17:33:30.282Z,19.63
2019-03-23T17:36:01.205Z,20.53
2019-03-23T17:38:32.078Z,19.87
2019-03-23T17:41:03.105Z,18.50
2019-03-23T17:43:35.118Z,17.40
2019-03-23T17:46:06.045Z,18.20
2019-03-23T17:48:36.917Z,18.10
2019-03-23T17:51:07.942Z,17.57
2019-03-23T17:53:38.910Z,15.70
2019-03-23T17:56:09.836Z,15.73
2019-03-23T17:58:40.801Z,15.87
2019-03-23T18:01:19.270Z,14.50
2019-03-23T18:03:47.006Z,14.73
2019-03-23T18:06:18.001Z,13.83
2019-03-23T18:08:48.886Z,13.23
2019-03-23T18:11:19.982Z,12.67
2019-03-23T18:13:50.861Z,13.03
2019-03-23T18:16:22.234Z,14.13
2019-03-23T18:18:53.115Z,14.00
2019-03-23T18:21:24.053Z,13.37
2019-03-23T18:23:54.945Z,13.53
2019-03-23T18:26:25.866Z,14.50
2019-03-23T18:28:57.137Z,15.77
2019-03-23T18:31:28.080Z,18.40
2019-03-23T18:33:58.960Z,19.00
2019-03-23T18:36:29.874Z,19.57
2019-03-23T18:39:00.753Z,20.30
2019-03-23T18:41:31.962Z,21.13
2019-03-23T18:44:02.998Z,22.23
2019-03-23T18:46:34.369Z,22.47
2019-03-23T18:49:05.259Z,23.57
2019-03-23T18:51:36.281Z,23.17
2019-03-23T18:54:07.157Z,24.03
2019-03-23T18:56:38.496Z,24.40
2019-03-23T18:59:09.385Z,23.60
2019-03-23T19:01:40.285Z,23.67
2019-03-23T19:04:11.169Z,24.73
2019-03-23T19:06:42.170Z,24.17
2019-03-23T19:09:13.074Z,26.50
2019-03-23T19:11:44.090Z,25.37
2019-03-23T19:14:14.963Z,27.37
2019-03-23T19:16:45.885Z,27.23
2019-03-23T19:19:16.786Z,27.20
2019-03-23T19:21:47.836Z,29.47
2019-03-23T19:24:18.715Z,27.97
2019-03-23T19:26:49.634Z,28.93
2019-03-23T19:29:20.513Z,31.57
2019-03-23T19:31:51.518Z,31.93
2019-03-23T19:34:22.401Z,31.70
2019-03-23T19:36:53.338Z,32.80
2019-03-23T19:39:24.250Z,33.73
2019-03-23T19:41:55.858Z,35.10
2019-03-23T19:44:26.805Z,35.17
2019-03-23T19:46:57.813Z,34.83
2019-03-23T19:49:29.774Z,36.50
2019-03-23T19:52:00.707Z,37.13
2019-03-23T19:54:31.654Z,35.57
2019-03-23T19:57:02.622Z,36.00
2019-03-23T19:59:33.514Z,37.83
2019-03-23T20:02:04.599Z,37.77
2019-03-23T20:04:35.486Z,37.83
2019-03-23T20:07:06.397Z,37.40
2019-03-23T20:09:37.291Z,37.80
2019-03-23T20:12:09.850Z,38.10
2019-03-23T20:14:41.759Z,37.40
2019-03-23T20:17:12.865Z,34.80
2019-03-23T20:19:43.755Z,31.90
2019-03-23T20:22:14.661Z,34.33
2019-03-23T20:24:45.550Z,31.23
2019-03-23T20:27:16.599Z,29.93
2019-03-23T20:29:47.563Z,29.20
2019-03-23T20:32:18.491Z,29.13
2019-03-23T20:34:49.379Z,28.13
2019-03-23T20:37:20.638Z,30.93
2019-03-23T20:39:51.529Z,29.30
2019-03-23T20:42:22.466Z,29.27
2019-03-23T20:44:53.574Z,30.43
2019-03-23T20:47:24.577Z,29.50
2019-03-23T20:49:55.662Z,29.80
2019-03-23T20:52:26.601Z,28.93
2019-03-23T20:54:57.485Z,30.17
2019-03-23T20:57:36.902Z,30.77
2019-03-23T21:00:01.714Z,28.63
2019-03-23T21:02:33.878Z,29.17
2019-03-23T21:05:04.979Z,28.50
2019-03-23T21:07:35.994Z,30.83
2019-03-23T21:10:07.078Z,30.93
2019-03-23T21:12:38.300Z,30.27
2019-03-23T21:15:09.393Z,30.40
2019-03-23T21:17:50.690Z,31.27
2019-03-23T21:20:12.817Z,30.33
2019-03-23T21:22:43.821Z,30.17
2019-03-23T21:25:14.757Z,32.07
2019-03-23T21:27:45.677Z,30.10
2019-03-23T21:30:17.474Z,31.10
2019-03-23T21:32:48.395Z,30.93
2019-03-23T21:35:19.270Z,32.20
2019-03-23T21:37:50.206Z,30.03
2019-03-23T21:40:21.459Z,29.23
2019-03-23T21:42:52.381Z,29.93
2019-03-23T21:45:23.297Z,29.10
2019-03-23T21:47:54.310Z,30.17
2019-03-23T21:50:25.194Z,29.17
2019-03-23T21:52:56.198Z,30.00
2019-03-23T21:55:27.083Z,30.53
2019-03-23T21:57:57.993Z,29.90
2019-03-23T22:00:33.446Z,30.80
2019-03-23T22:03:04.790Z,29.90
2019-03-23T22:05:35.665Z,29.10
2019-03-23T22:08:06.591Z,28.30
2019-03-23T22:10:37.529Z,29.43
2019-03-23T22:13:09.141Z,30.03
2019-03-23T22:15:40.025Z,30.10
2019-03-23T22:18:11.050Z,29.67
2019-03-23T22:20:41.938Z,28.37
2019-03-23T22:23:13.786Z,30.30
2019-03-23T22:25:44.650Z,28.90
2019-03-23T22:28:15.573Z,29.27
2019-03-23T22:30:46.448Z,28.60
2019-03-23T22:33:17.701Z,30.60
2019-03-23T22:35:48.594Z,29.77
2019-03-23T22:38:19.530Z,29.17
2019-03-23T22:40:50.403Z,31.57
2019-03-23T22:43:21.649Z,31.23
2019-03-23T22:45:52.589Z,31.97
2019-03-23T22:48:23.825Z,32.37
2019-03-23T22:50:54.715Z,32.40
2019-03-23T22:53:25.622Z,32.60
2019-03-23T22:55:56.505Z,32.87
2019-03-23T22:58:27.846Z,33.47
2019-03-23T23:00:58.878Z,34.00
2019-03-23T23:03:29.789Z,35.60
2019-03-23T23:06:00.679Z,34.90
2019-03-23T23:08:31.613Z,34.63
2019-03-23T23:11:02.498Z,34.87
2019-03-23T23:13:33.413Z,36.23
2019-03-23T23:16:04.297Z,35.60
2019-03-23T23:18:35.210Z,36.07
2019-03-23T23:21:06.134Z,35.17
2019-03-23T23:23:37.017Z,35.43
2019-03-23T23:26:08.035Z,35.47
2019-03-23T23:28:39.025Z,35.93
2019-03-23T23:31:09.954Z,33.97
2019-03-23T23:33:42.152Z,36.07
2019-03-23T23:36:24.486Z,35.07
2019-03-23T23:38:55.395Z,33.30
